Whidbey Island Naval Air Station, Ault Field, Airport Oak Harbor US
ICAO: KNUW
IATA: NUW
Category: Medium
Scheduled Services: No

Elevation: 47 ft
TransAlt. 18000 ft.

Airport Communications:
APP/DEP:118.2
ATIS:134.15
CLNC DEL:124.15
GND:121.75
BASE OPS:35.01
PMSV METRO:34.34
TWR:127.9

KNUW Zoom In..

Runways:

(A) RW 07 length 8000 ft width 200 ft
---- / hdg 69

(B) RW 14 length 8001 ft width 200 ft
ILS 110.10 / hdg 137

(C) RW 25 length 8000 ft width 200 ft
---- / hdg 249

(D) RW 32 length 8001 ft width 200 ft
---- / hdg 317

Location; KNUW
Day. 19 / Time. 02.56 Zulu
* Altimeter: 30.19
* Temperature: 17° c. 62.6°f.
* Wind from: 240° Speed 12 kn.
Dewpoint: 11° c.
Visibility: 10 Statute Miles.
Clouds: Few 1600 ft.
Clouds: Few 4000 ft.
Clouds: Scattered 12000 ft.
Clouds: Scattered 25000 ft.

KNUW 190256Z 24012KT 10SM FEW016 FEW040 SCT120 SCT250 17/11 A3019 RMK AO2 SLP221 T01670106 56007 $


Wind From 240°
Speed 12 kn.

 
 
jpsmedia.com for Web Design worldairports.se 2018   terms of use